Time;durP1;ratioP1;P1;durP2;ratioP2;P2;SDS_P1;SDS_P2;PMS_P1;PMS_P2;Temp;Humidity;BMP_temperature;BMP_pressure;BME280_temperature;BME280_humidity;BME280_pressure;Samples;Min_cycle;Max_cycle;Signal;HPM_P1;HPM_P2
2021/05/09 00:00:38;;;;;;;;;;;;;;;21.69;29.88;98549.19;4942972;29;1903;-76
2021/05/09 00:03:04;;;;;;;;;;;;;;;21.71;29.55;98558.06;4942890;29;612;-77
2021/05/09 00:05:30;;;;;;;;;;;;;;;21.75;29.42;98557.97;4942670;29;956;-77
2021/05/09 00:07:55;;;;;;;;;;;;;;;21.71;29.60;98560.91;4942417;29;913;-76
2021/05/09 00:10:21;;;;;;;;;;;;;;;21.63;29.65;98555.78;4942643;29;888;-77
2021/05/09 00:12:46;;;;;;;;;;;;;;;21.45;29.94;98561.75;4942734;29;658;-76
2021/05/09 00:15:12;;;;;;;;;;;;;;;21.58;29.75;98559.91;4942648;29;627;-76
2021/05/09 00:17:38;;;;;;;;;;;;;;;21.47;30.11;98565.75;4942291;29;884;-76
2021/05/09 00:20:07;;;;;;;;;;;;;;;21.55;29.88;98574.91;4942328;29;1971;-76
2021/05/09 00:22:32;;;;;;;;;;;;;;;21.67;29.79;98571.50;4942584;29;1002;-77
2021/05/09 00:24:58;;;;;;;;;;;;;;;21.72;29.54;98573.81;4942780;29;680;-76
2021/05/09 00:27:23;;;;;;;;;;;;;;;21.67;29.72;98574.31;4942437;29;699;-77
2021/05/09 00:29:49;;;;;;;;;;;;;;;21.49;30.28;98570.97;4942461;29;987;-76
2021/05/09 00:32:30;;;;;;;;;;;;;;;21.59;30.15;98578.50;4942477;29;677;-75
2021/05/09 00:34:58;;;;;;;;;;;;;;;21.63;29.93;98579.25;4942303;29;939;-76
2021/05/09 00:37:23;;;;;;;;;;;;;;;21.49;30.32;98585.13;4942454;29;873;-76
2021/05/09 00:39:49;;;;;;;;;;;;;;;21.61;29.93;98581.72;4942240;29;1959;-76
2021/05/09 00:42:16;;;;;;;;;;;;;;;21.55;30.01;98583.41;4926186;29;1316;-76
2021/05/09 00:44:41;;;;;;;;;;;;;;;21.54;30.24;98587.47;4942359;29;679;-76
2021/05/09 00:47:08;;;;;;;;;;;;;;;21.67;29.97;98590.50;4942276;29;671;-76
2021/05/09 00:49:35;;;;;;;;;;;;;;;21.66;29.84;98586.88;4925796;29;861;-76
2021/05/09 00:52:00;;;;;;;;;;;;;;;21.56;30.39;98602.03;4942050;29;910;-76
2021/05/09 00:54:26;;;;;;;;;;;;;;;21.59;30.06;98606.81;4925748;29;1055;-76
2021/05/09 00:56:52;;;;;;;;;;;;;;;21.60;30.16;98605.56;4942212;29;647;-77
2021/05/09 00:59:18;;;;;;;;;;;;;;;21.59;30.19;98612.47;4910548;29;1985;-75
2021/05/09 01:01:44;;;;;;;;;;;;;;;21.62;29.77;98614.47;4925944;29;1232;-76
2021/05/09 01:04:09;;;;;;;;;;;;;;;21.69;30.11;98605.81;4942205;29;707;-76
2021/05/09 01:06:35;;;;;;;;;;;;;;;21.70;30.08;98610.25;4925572;29;889;-76
2021/05/09 01:09:00;;;;;;;;;;;;;;;21.59;30.26;98618.13;4942301;29;843;-76
2021/05/09 01:11:25;;;;;;;;;;;;;;;21.72;30.02;98616.31;4944562;29;913;-76
2021/05/09 01:13:51;;;;;;;;;;;;;;;21.63;30.14;98607.56;4946171;29;616;-76
2021/05/09 01:16:20;;;;;;;;;;;;;;;21.75;29.74;98615.44;4945787;29;687;-75
2021/05/09 01:18:45;;;;;;;;;;;;;;;21.67;29.80;98619.63;4945665;29;1906;-76
2021/05/09 01:21:11;;;;;;;;;;;;;;;21.63;29.94;98618.88;4945784;29;963;-75
2021/05/09 01:23:36;;;;;;;;;;;;;;;21.53;30.23;98614.19;4945584;29;860;-76
2021/05/09 01:26:02;;;;;;;;;;;;;;;21.58;29.95;98616.53;4929268;29;1252;-76
2021/05/09 01:28:28;;;;;;;;;;;;;;;21.55;30.02;98623.88;4945588;29;650;-77
2021/05/09 01:30:54;;;;;;;;;;;;;;;21.59;30.15;98621.78;4929174;29;1166;-75
2021/05/09 01:33:19;;;;;;;;;;;;;;;21.54;30.12;98610.13;4945372;29;580;-76
2021/05/09 01:35:45;;;;;;;;;;;;;;;21.46;30.12;98608.66;4945597;29;821;-76
2021/05/09 01:38:11;;;;;;;;;;;;;;;21.49;29.94;98610.63;4945213;29;906;-75
2021/05/09 01:40:37;;;;;;;;;;;;;;;21.51;30.30;98611.00;4945092;29;1906;-76
2021/05/09 01:43:03;;;;;;;;;;;;;;;21.68;29.75;98604.22;4945274;29;636;-75
2021/05/09 01:45:29;;;;;;;;;;;;;;;21.42;30.17;98607.91;4945415;29;656;-75
2021/05/09 01:47:54;;;;;;;;;;;;;;;21.60;29.93;98608.41;4945176;29;660;-74
2021/05/09 01:50:20;;;;;;;;;;;;;;;21.70;29.83;98615.91;4928139;29;1170;-75
2021/05/09 01:52:46;;;;;;;;;;;;;;;21.65;29.71;98627.75;4928446;29;1461;-75
2021/05/09 01:55:18;;;;;;;;;;;;;;;21.69;30.02;98622.81;4945082;29;971;-76
2021/05/09 01:57:49;;;;;;;;;;;;;;;21.53;29.98;98625.53;4929007;29;1208;-75
2021/05/09 02:00:23;;;;;;;;;;;;;;;21.58;29.90;98616.53;4928720;29;1974;-75
2021/05/09 02:03:01;;;;;;;;;;;;;;;21.67;29.76;98625.28;4928497;29;1008;-75
2021/05/09 02:05:29;;;;;;;;;;;;;;;21.59;29.86;98623.81;4944798;29;864;-75
2021/05/09 02:07:56;;;;;;;;;;;;;;;21.59;29.83;98624.59;4928543;29;1132;-75
2021/05/09 02:10:22;;;;;;;;;;;;;;;21.58;29.89;98630.69;4928604;29;1171;-75
2021/05/09 02:12:50;;;;;;;;;;;;;;;21.64;29.74;98631.81;4944813;29;680;-76
2021/05/09 02:15:27;;;;;;;;;;;;;;;21.62;29.57;98628.63;4944869;29;649;-76
2021/05/09 02:17:52;;;;;;;;;;;;;;;21.61;29.79;98632.69;4927998;29;1201;-76
2021/05/09 02:20:22;;;;;;;;;;;;;;;21.53;29.99;98622.69;4927964;29;1981;-76
2021/05/09 02:22:49;;;;;;;;;;;;;;;21.53;29.82;98632.00;4943412;29;927;-77
2021/05/09 02:25:16;;;;;;;;;;;;;;;21.50;29.97;98632.03;4928427;29;1181;-76
2021/05/09 02:27:41;;;;;;;;;;;;;;;21.54;29.65;98621.47;4928282;29;1182;-76
2021/05/09 02:30:08;;;;;;;;;;;;;;;21.64;29.80;98626.16;4944033;29;1039;-76
2021/05/09 02:32:51;;;;;;;;;;;;;;;21.64;29.61;98626.16;4944285;29;848;-76
2021/05/09 02:35:18;;;;;;;;;;;;;;;21.63;29.68;98633.03;4928082;29;1318;-76
2021/05/09 02:37:43;;;;;;;;;;;;;;;21.46;29.68;98625.66;4928082;29;1236;-76
2021/05/09 02:40:09;;;;;;;;;;;;;;;21.62;29.28;98634.28;4944471;29;1980;-76
2021/05/09 02:42:35;;;;;;;;;;;;;;;21.84;30.16;98641.16;4927987;29;1284;-76
2021/05/09 02:45:01;;;;;;;;;;;;;;;22.04;30.71;98637.59;4944026;29;861;-76
2021/05/09 02:47:30;;;;;;;;;;;;;;;22.25;30.45;98642.91;4943857;29;836;-76
2021/05/09 02:50:02;;;;;;;;;;;;;;;22.32;31.23;98647.63;4944065;29;845;-76
2021/05/09 02:52:28;;;;;;;;;;;;;;;22.40;30.98;98648.28;4944093;29;651;-76
2021/05/09 02:54:54;;;;;;;;;;;;;;;21.99;31.20;98644.56;4927781;29;1177;-76
2021/05/09 02:57:20;;;;;;;;;;;;;;;21.79;31.28;98644.50;4927075;29;1304;-76
2021/05/09 02:59:51;;;;;;;;;;;;;;;21.77;31.17;98651.84;4911633;29;1957;-76
2021/05/09 03:02:23;;;;;;;;;;;;;;;21.78;31.04;98654.22;4943832;29;900;-76
2021/05/09 03:04:49;;;;;;;;;;;;;;;21.65;31.27;98650.41;4943860;29;652;-77
2021/05/09 03:07:15;;;;;;;;;;;;;;;21.60;31.57;98670.72;4943404;29;1130;-77
2021/05/09 03:09:40;;;;;;;;;;;;;;;21.79;31.38;98661.50;4943266;29;1181;-76
2021/05/09 03:12:07;;;;;;;;;;;;;;;21.71;31.17;98668.53;4943239;29;1138;-76
2021/05/09 03:14:32;;;;;;;;;;;;;;;21.73;30.99;98668.88;4918561;29;1253;-77
2021/05/09 03:16:59;;;;;;;;;;;;;;;21.72;31.36;98672.97;4938032;29;1232;-76
2021/05/09 03:19:24;;;;;;;;;;;;;;;21.65;31.25;98678.72;4943048;29;1895;-76
2021/05/09 03:21:50;;;;;;;;;;;;;;;21.74;31.33;98681.81;4943816;29;600;-77
2021/05/09 03:24:15;;;;;;;;;;;;;;;21.73;31.08;98688.72;4943495;29;675;-76
2021/05/09 03:26:41;;;;;;;;;;;;;;;21.75;31.06;98694.75;4943403;29;611;-76
2021/05/09 03:29:06;;;;;;;;;;;;;;;21.66;31.08;98700.16;4943437;29;1036;-76
2021/05/09 03:31:32;;;;;;;;;;;;;;;21.74;30.76;98703.69;4926761;29;1065;-76
2021/05/09 03:33:57;;;;;;;;;;;;;;;21.67;31.05;98704.59;4923051;29;1336;-76
2021/05/09 03:36:23;;;;;;;;;;;;;;;21.65;31.17;98701.38;4929714;29;1041;-76
2021/05/09 03:38:48;;;;;;;;;;;;;;;21.61;30.83;98705.53;4943173;29;1910;-76
2021/05/09 03:41:14;;;;;;;;;;;;;;;21.65;31.23;98711.91;4943247;29;604;-76
2021/05/09 03:43:39;;;;;;;;;;;;;;;21.63;31.10;98718.00;4942816;29;1018;-76
2021/05/09 03:46:05;;;;;;;;;;;;;;;21.53;31.14;98716.94;4942879;29;880;-76
2021/05/09 03:48:30;;;;;;;;;;;;;;;21.52;30.80;98725.88;4943083;29;908;-76
2021/05/09 03:50:56;;;;;;;;;;;;;;;21.63;30.84;98731.38;4926663;29;1321;-76
2021/05/09 03:53:21;;;;;;;;;;;;;;;21.61;30.70;98728.19;4942933;29;592;-76
2021/05/09 03:55:47;;;;;;;;;;;;;;;21.72;30.58;98729.59;4943011;29;664;-76
2021/05/09 03:58:12;;;;;;;;;;;;;;;21.70;30.43;98726.38;4943176;29;796;-77
2021/05/09 04:00:38;;;;;;;;;;;;;;;21.77;30.39;98731.97;4942934;29;1891;-77
2021/05/09 04:03:17;;;;;;;;;;;;;;;21.63;30.48;98743.50;4942553;29;922;-76
2021/05/09 04:05:45;;;;;;;;;;;;;;;21.62;30.42;98747.56;4942831;29;848;-77
2021/05/09 04:08:10;;;;;;;;;;;;;;;21.65;30.60;98746.69;4942809;29;710;-77
2021/05/09 04:10:36;;;;;;;;;;;;;;;21.69;30.17;98741.78;4942736;29;671;-77
2021/05/09 04:13:01;;;;;;;;;;;;;;;21.62;30.25;98753.22;4943119;29;679;-76
2021/05/09 04:15:27;;;;;;;;;;;;;;;21.64;30.26;98762.09;4942438;29;862;-77
2021/05/09 04:17:52;;;;;;;;;;;;;;;21.57;30.48;98767.88;4942430;29;886;-77
2021/05/09 04:20:18;;;;;;;;;;;;;;;21.57;30.30;98768.66;4942593;29;1903;-76
2021/05/09 04:22:43;;;;;;;;;;;;;;;21.64;29.95;98781.91;4942749;29;758;-77
2021/05/09 04:25:09;;;;;;;;;;;;;;;21.63;30.19;98782.34;4942372;29;749;-77
2021/05/09 04:27:34;;;;;;;;;;;;;;;21.50;30.14;98784.94;4926187;29;1420;-76
2021/05/09 04:29:59;;;;;;;;;;;;;;;21.54;30.22;98786.50;4926012;29;1284;-77
2021/05/09 04:32:25;;;;;;;;;;;;;;;21.65;30.13;98785.53;4942547;29;888;-77
2021/05/09 04:34:50;;;;;;;;;;;;;;;21.67;30.16;98794.44;4942372;29;914;-77
2021/05/09 04:37:16;;;;;;;;;;;;;;;21.67;30.20;98795.22;4942607;29;1131;-77
2021/05/09 04:39:41;;;;;;;;;;;;;;;21.74;29.82;98797.94;4942707;29;1981;-76
2021/05/09 04:42:07;;;;;;;;;;;;;;;21.58;30.18;98804.25;4942544;29;687;-76
2021/05/09 04:44:32;;;;;;;;;;;;;;;21.55;30.55;98805.13;4942745;29;691;-76
2021/05/09 04:46:58;;;;;;;;;;;;;;;21.59;30.13;98807.88;4944712;29;912;-77
2021/05/09 04:49:23;;;;;;;;;;;;;;;21.66;29.98;98809.78;4945945;29;913;-76
2021/05/09 04:51:48;;;;;;;;;;;;;;;21.60;30.29;98820.81;4946233;29;804;-77
2021/05/09 04:54:14;;;;;;;;;;;;;;;21.57;30.11;98813.19;4946248;29;651;-76
2021/05/09 04:56:39;;;;;;;;;;;;;;;21.52;30.25;98828.59;4946807;29;679;-76
2021/05/09 04:59:05;;;;;;;;;;;;;;;21.55;30.24;98832.59;4946079;29;1969;-77
2021/05/09 05:01:30;;;;;;;;;;;;;;;21.57;29.86;98825.31;4945852;29;1149;-76
2021/05/09 05:03:56;;;;;;;;;;;;;;;21.58;29.95;98834.59;4945810;29;889;-77
2021/05/09 05:06:21;;;;;;;;;;;;;;;21.57;30.00;98835.84;4946047;29;867;-76
2021/05/09 05:08:47;;;;;;;;;;;;;;;21.47;30.10;98836.78;4946046;29;677;-76
2021/05/09 05:11:12;;;;;;;;;;;;;;;21.55;30.04;98838.25;4946133;29;775;-76
2021/05/09 05:13:38;;;;;;;;;;;;;;;21.59;30.19;98839.81;4945977;29;703;-76
2021/05/09 05:16:04;;;;;;;;;;;;;;;21.61;30.37;98847.91;4945589;29;919;-76
2021/05/09 05:18:30;;;;;;;;;;;;;;;21.57;30.04;98850.00;4928828;29;1269;-76
2021/05/09 05:20:57;;;;;;;;;;;;;;;21.60;30.15;98851.94;4945809;29;1899;-76
2021/05/09 05:23:22;;;;;;;;;;;;;;;21.62;30.25;98846.69;4945747;29;631;-76
2021/05/09 05:25:48;;;;;;;;;;;;;;;21.65;29.98;98854.31;4945718;29;643;-77
2021/05/09 05:28:13;;;;;;;;;;;;;;;21.59;30.01;98856.03;4945710;29;651;-76
2021/05/09 05:30:39;;;;;;;;;;;;;;;21.57;29.87;98852.81;4945346;29;1068;-77
2021/05/09 05:33:05;;;;;;;;;;;;;;;21.58;29.89;98857.25;4945294;29;898;-77
2021/05/09 05:35:30;;;;;;;;;;;;;;;21.67;29.78;98857.53;4945444;29;998;-76
2021/05/09 05:37:55;;;;;;;;;;;;;;;21.65;29.68;98859.97;4945782;29;1060;-77
2021/05/09 05:40:22;;;;;;;;;;;;;;;21.51;29.93;98846.81;4945693;29;1903;-77
2021/05/09 05:42:47;;;;;;;;;;;;;;;21.51;30.00;98865.84;4945396;29;638;-77
2021/05/09 05:45:13;;;;;;;;;;;;;;;21.54;30.11;98859.31;4945440;29;845;-76
2021/05/09 05:47:39;;;;;;;;;;;;;;;21.60;30.16;98860.44;4928141;29;888;-76
2021/05/09 05:50:05;;;;;;;;;;;;;;;21.60;30.01;98857.63;4944881;29;916;-77
2021/05/09 05:52:30;;;;;;;;;;;;;;;21.62;29.88;98860.84;4945383;29;805;-76
2021/05/09 05:54:56;;;;;;;;;;;;;;;21.55;30.05;98856.09;4944956;29;695;-77
2021/05/09 05:57:21;;;;;;;;;;;;;;;21.61;30.20;98859.25;4944999;29;572;-76
2021/05/09 05:59:47;;;;;;;;;;;;;;;21.62;29.89;98866.50;4945142;29;1907;-76
2021/05/09 06:02:12;;;;;;;;;;;;;;;21.65;30.11;98874.13;4944734;29;934;-77
2021/05/09 06:04:39;;;;;;;;;;;;;;;21.66;30.06;98872.94;4944806;29;929;-77
2021/05/09 06:07:06;;;;;;;;;;;;;;;21.62;29.78;98877.03;4944957;29;925;-77
2021/05/09 06:09:31;;;;;;;;;;;;;;;21.73;29.71;98883.38;4928680;29;1157;-77
2021/05/09 06:12:06;;;;;;;;;;;;;;;21.65;30.04;98882.63;4927931;29;1250;-77
2021/05/09 06:14:32;;;;;;;;;;;;;;;21.54;30.06;98887.63;4944851;29;612;-77
2021/05/09 06:16:57;;;;;;;;;;;;;;;21.59;30.08;98882.31;4944426;29;1074;-77
2021/05/09 06:19:26;;;;;;;;;;;;;;;21.65;29.79;98893.97;4944431;29;1903;-77
2021/05/09 06:21:51;;;;;;;;;;;;;;;21.62;29.78;98892.00;4944614;29;988;-77
2021/05/09 06:24:17;;;;;;;;;;;;;;;21.70;29.64;98898.38;4944598;29;639;-77
2021/05/09 06:26:42;;;;;;;;;;;;;;;21.62;29.99;98897.66;4944752;29;1035;-77
2021/05/09 06:29:08;;;;;;;;;;;;;;;21.72;29.76;98905.22;4944885;29;769;-77
2021/05/09 06:31:33;;;;;;;;;;;;;;;21.69;30.00;98911.72;4944284;29;941;-77
2021/05/09 06:33:59;;;;;;;;;;;;;;;21.71;29.74;98912.13;4944297;29;953;-77
2021/05/09 06:36:24;;;;;;;;;;;;;;;21.62;30.16;98911.03;4944257;29;1127;-76
2021/05/09 06:38:53;;;;;;;;;;;;;;;21.69;29.97;98910.94;4944474;29;769;-76
2021/05/09 06:41:20;;;;;;;;;;;;;;;21.69;29.85;98911.72;4944342;29;611;-77
2021/05/09 06:43:46;;;;;;;;;;;;;;;21.72;29.70;98910.88;4944425;29;615;-77
2021/05/09 06:46:11;;;;;;;;;;;;;;;21.73;29.90;98921.00;4943994;29;919;-77
2021/05/09 06:48:37;;;;;;;;;;;;;;;21.51;30.03;98917.63;4943861;29;874;-77
2021/05/09 06:51:02;;;;;;;;;;;;;;;21.58;29.84;98928.06;4943998;29;997;-77
2021/05/09 06:53:28;;;;;;;;;;;;;;;21.54;30.26;98928.09;4944031;29;668;-77
2021/05/09 06:55:54;;;;;;;;;;;;;;;21.59;29.80;98924.00;4944159;29;627;-77
2021/05/09 06:58:19;;;;;;;;;;;;;;;21.58;29.81;98928.84;4944165;29;635;-77
2021/05/09 07:00:45;;;;;;;;;;;;;;;21.59;30.23;98924.78;4943644;29;1907;-76
2021/05/09 07:03:10;;;;;;;;;;;;;;;21.68;29.78;98927.13;4943721;29;865;-76
2021/05/09 07:05:36;;;;;;;;;;;;;;;21.61;30.12;98921.56;4943937;29;1009;-77
2021/05/09 07:08:01;;;;;;;;;;;;;;;21.59;29.83;98927.63;4943713;29;703;-77
2021/05/09 07:10:27;;;;;;;;;;;;;;;21.56;29.95;98919.97;4943694;29;691;-77
2021/05/09 07:12:54;;;;;;;;;;;;;;;21.55;29.91;98928.88;4944094;29;648;-76
2021/05/09 07:15:28;;;;;;;;;;;;;;;21.60;29.81;98925.59;4943829;29;998;-76
2021/05/09 07:17:54;;;;;;;;;;;;;;;21.51;30.00;98928.16;4927914;29;888;-77
2021/05/09 07:20:19;;;;;;;;;;;;;;;21.57;30.09;98926.44;4943715;29;1907;-76
2021/05/09 07:22:52;;;;;;;;;;;;;;;21.56;29.69;98925.66;4943605;29;639;-77
2021/05/09 07:25:17;;;;;;;;;;;;;;;21.60;29.74;98931.25;4943487;29;656;-76
2021/05/09 07:27:43;;;;;;;;;;;;;;;21.69;29.73;98940.06;4943498;29;711;-76
2021/05/09 07:30:09;;;;;;;;;;;;;;;21.65;29.84;98933.63;4943460;29;715;-77
2021/05/09 07:32:34;;;;;;;;;;;;;;;21.64;29.92;98937.69;4943071;29;954;-77
2021/05/09 07:35:03;;;;;;;;;;;;;;;21.62;29.85;98942.97;4943185;29;899;-77
2021/05/09 07:37:28;;;;;;;;;;;;;;;21.73;29.51;98940.00;4943179;29;1192;-77
2021/05/09 07:39:54;;;;;;;;;;;;;;;21.60;29.81;98939.75;4926337;29;1914;-77
2021/05/09 07:42:19;;;;;;;;;;;;;;;21.49;29.89;98941.91;4943346;29;674;-77
2021/05/09 07:44:54;;;;;;;;;;;;;;;21.50;29.92;98949.16;4943238;29;651;-77
2021/05/09 07:47:20;;;;;;;;;;;;;;;21.58;29.75;98945.84;4927249;29;892;-77
2021/05/09 07:49:45;;;;;;;;;;;;;;;21.61;29.59;98949.88;4942391;29;874;-77
2021/05/09 07:52:11;;;;;;;;;;;;;;;21.48;30.06;98943.13;4943155;29;931;-77
2021/05/09 07:54:36;;;;;;;;;;;;;;;21.62;29.55;98951.47;4942806;29;632;-77
2021/05/09 07:57:01;;;;;;;;;;;;;;;21.56;29.69;98950.34;4943074;29;588;-77
2021/05/09 07:59:28;;;;;;;;;;;;;;;21.65;29.71;98947.78;4943248;29;1898;-76
2021/05/09 08:01:54;;;;;;;;;;;;;;;21.56;30.04;98948.31;4942168;29;1170;-75
2021/05/09 08:04:25;;;;;;;;;;;;;;;21.56;29.92;98947.50;4934209;29;1339;-76
2021/05/09 08:06:51;;;;;;;;;;;;;;;21.66;29.78;98946.56;4932649;29;1130;-77
2021/05/09 08:09:16;;;;;;;;;;;;;;;21.64;29.74;98951.84;4933794;29;1220;-75
2021/05/09 08:11:42;;;;;;;;;;;;;;;21.61;29.74;98955.53;4942219;29;1264;-77
2021/05/09 08:14:07;;;;;;;;;;;;;;;21.64;29.83;98960.34;4933048;29;1243;-77
2021/05/09 08:16:33;;;;;;;;;;;;;;;21.59;29.75;98957.97;4932796;29;1177;-76
2021/05/09 08:18:58;;;;;;;;;;;;;;;21.67;29.69;98959.50;4939247;29;1978;-76
2021/05/09 08:21:24;;;;;;;;;;;;;;;21.66;29.56;98946.56;4941201;29;1189;-77
2021/05/09 08:23:49;;;;;;;;;;;;;;;21.65;29.58;98953.44;4942817;29;1145;-77
2021/05/09 08:26:14;;;;;;;;;;;;;;;21.59;29.59;98952.31;4942601;29;639;-76
2021/05/09 08:28:43;;;;;;;;;;;;;;;21.67;29.42;98948.19;4942517;29;652;-77
2021/05/09 08:31:15;;;;;;;;;;;;;;;21.60;29.81;98956.75;4910183;29;1240;-77
2021/05/09 08:33:41;;;;;;;;;;;;;;;21.58;29.97;98945.03;4942362;29;820;-77
2021/05/09 08:36:06;;;;;;;;;;;;;;;21.62;29.87;98945.00;4942281;29;989;-77
2021/05/09 08:38:32;;;;;;;;;;;;;;;21.54;29.82;98949.94;4942763;29;663;-77
2021/05/09 08:40:58;;;;;;;;;;;;;;;21.53;29.59;98959.66;4942408;29;1910;-77
2021/05/09 08:43:23;;;;;;;;;;;;;;;21.58;29.66;98956.38;4942599;29;616;-76
2021/05/09 08:45:49;;;;;;;;;;;;;;;21.64;29.53;98956.72;4925633;29;882;-76
2021/05/09 08:48:19;;;;;;;;;;;;;;;21.60;29.78;98959.56;4942172;29;910;-77
2021/05/09 08:50:45;;;;;;;;;;;;;;;21.67;29.78;98965.19;4942491;29;896;-77
2021/05/09 08:53:10;;;;;;;;;;;;;;;21.70;29.55;98961.47;4942398;29;690;-77
2021/05/09 08:55:36;;;;;;;;;;;;;;;21.64;29.50;98954.69;4942596;29;631;-77
2021/05/09 08:58:01;;;;;;;;;;;;;;;21.59;29.58;98953.09;4942451;29;687;-77
2021/05/09 09:00:27;;;;;;;;;;;;;;;21.54;29.74;98956.41;4942551;29;1907;-77
2021/05/09 09:02:52;;;;;;;;;;;;;;;21.65;29.57;98956.28;4942238;29;647;-76
2021/05/09 09:05:18;;;;;;;;;;;;;;;21.57;29.56;98960.44;4941964;29;972;-77
2021/05/09 09:07:51;;;;;;;;;;;;;;;21.54;29.84;98964.09;4925612;29;1383;-77
2021/05/09 09:10:32;;;;;;;;;;;;;;;21.58;29.66;98962.03;4925921;29;883;-77
2021/05/09 09:13:01;;;;;;;;;;;;;;;21.62;29.51;98957.13;4942342;29;756;-76
2021/05/09 09:15:45;;;;;;;;;;;;;;;21.63;29.36;98958.75;4942198;29;696;-77
2021/05/09 09:18:29;;;;;;;;;;;;;;;21.64;29.70;98966.00;4942263;29;691;-77
2021/05/09 09:20:55;;;;;;;;;;;;;;;21.52;29.80;98963.72;4941810;29;1977;-77
2021/05/09 09:23:20;;;;;;;;;;;;;;;21.43;29.93;98960.59;4925361;29;941;-77
2021/05/09 09:25:46;;;;;;;;;;;;;;;21.67;29.56;98959.50;4925799;29;1307;-77
2021/05/09 09:28:11;;;;;;;;;;;;;;;21.70;29.05;98958.66;4942102;29;677;-76
2021/05/09 09:30:49;;;;;;;;;;;;;;;21.72;29.38;98967.53;4942067;29;783;-76
2021/05/09 09:33:17;;;;;;;;;;;;;;;21.54;29.63;98962.06;4945137;29;659;-77
2021/05/09 09:35:44;;;;;;;;;;;;;;;21.55;29.55;98962.88;4945412;29;849;-76
2021/05/09 09:38:24;;;;;;;;;;;;;;;21.52;29.82;98958.06;4928685;29;910;-76
2021/05/09 09:41:08;;;;;;;;;;;;;;;21.51;29.95;98954.44;4945578;29;1914;-77
2021/05/09 09:43:34;;;;;;;;;;;;;;;21.50;30.01;98972.66;4945883;29;632;-76
2021/05/09 09:45:59;;;;;;;;;;;;;;;21.77;29.28;98966.28;4945381;29;624;-76
2021/05/09 09:48:38;;;;;;;;;;;;;;;21.82;29.49;98966.63;4945301;29;688;-76
2021/05/09 09:51:03;;;;;;;;;;;;;;;21.58;29.79;98962.03;4945084;29;1089;-77
2021/05/09 09:53:30;;;;;;;;;;;;;;;21.58;29.60;98964.88;4928402;29;1262;-77
2021/05/09 09:55:59;;;;;;;;;;;;;;;21.65;29.57;98961.94;4945468;29;1041;-77
2021/05/09 09:58:25;;;;;;;;;;;;;;;21.62;29.70;98968.47;4945145;29;899;-77
2021/05/09 10:00:51;;;;;;;;;;;;;;;21.62;29.60;98968.47;4944990;29;1910;-76
2021/05/09 10:03:16;;;;;;;;;;;;;;;21.68;29.72;98965.97;4945131;29;684;-77
2021/05/09 10:05:41;;;;;;;;;;;;;;;21.78;29.58;98971.50;4928533;29;1017;-76
2021/05/09 10:08:07;;;;;;;;;;;;;;;21.71;29.44;98976.44;4944722;29;947;-77
2021/05/09 10:10:32;;;;;;;;;;;;;;;21.69;29.62;98974.03;4928100;29;856;-76
2021/05/09 10:13:04;;;;;;;;;;;;;;;21.63;29.74;98975.72;4928690;29;604;-76
2021/05/09 10:15:29;;;;;;;;;;;;;;;21.63;29.60;98970.06;4944826;29;664;-76
2021/05/09 10:17:55;;;;;;;;;;;;;;;21.59;29.83;98974.97;4944966;29;867;-76
2021/05/09 10:20:20;;;;;;;;;;;;;;;21.59;29.67;98984.25;4928148;29;1899;-74
2021/05/09 10:22:46;;;;;;;;;;;;;;;21.59;29.49;98977.78;4944418;29;824;-77
2021/05/09 10:25:12;;;;;;;;;;;;;;;21.59;29.50;98963.63;4927943;29;1184;-76
2021/05/09 10:27:38;;;;;;;;;;;;;;;21.51;29.88;98967.78;4928230;29;1354;-77
2021/05/09 10:30:04;;;;;;;;;;;;;;;21.65;29.70;98967.59;4928167;29;639;-77
2021/05/09 10:32:33;;;;;;;;;;;;;;;21.62;29.57;98956.34;4944495;29;620;-77
2021/05/09 10:35:00;;;;;;;;;;;;;;;21.65;29.77;98963.97;4944226;29;909;-77
2021/05/09 10:37:48;;;;;;;;;;;;;;;21.70;29.64;98961.47;4944234;29;1203;-77
2021/05/09 10:40:23;;;;;;;;;;;;;;;21.53;29.97;98959.66;4944328;29;1906;-77
2021/05/09 10:42:49;;;;;;;;;;;;;;;21.64;29.60;98966.00;4943814;29;612;-76
2021/05/09 10:45:40;;;;;;;;;;;;;;;21.67;29.67;98959.50;4927432;29;600;-77
2021/05/09 10:48:15;;;;;;;;;;;;;;;21.71;29.43;98965.94;4934135;29;973;-77
2021/05/09 10:50:40;;;;;;;;;;;;;;;21.68;29.59;98961.09;4943941;29;852;-76
2021/05/09 10:53:06;;;;;;;;;;;;;;;21.69;29.73;98957.03;4943801;29;822;-77
2021/05/09 10:55:38;;;;;;;;;;;;;;;21.75;29.60;98963.03;4928082;29;810;-76
2021/05/09 10:58:07;;;;;;;;;;;;;;;21.68;29.70;98966.78;4944471;29;664;-77
2021/05/09 11:01:11;;;;;;;;;;;;;;;21.74;29.62;98964.28;4927573;29;1894;-76
2021/05/09 11:03:37;;;;;;;;;;;;;;;21.58;29.74;98956.38;4867357;29;1032;-76
2021/05/09 11:06:09;;;;;;;;;;;;;;;21.73;29.76;98957.00;4866990;29;847;-77
2021/05/09 11:08:53;;;;;;;;;;;;;;;19.87;29.96;98681.69;4906165;29;929;-77
2021/05/09 11:11:23;;;;;;;;;;;;;;;21.72;29.65;98967.53;4944458;29;852;-76
2021/05/09 11:16:23;;;;;;;;;;;;;;;21.60;29.82;98965.25;4943672;29;597;-76
2021/05/09 11:19:01;;;;;;;;;;;;;;;21.62;29.79;98964.84;4943780;29;647;-77
2021/05/09 11:21:31;;;;;;;;;;;;;;;21.59;30.12;98952.31;4927058;29;1960;-76
2021/05/09 11:24:00;;;;;;;;;;;;;;;21.63;29.81;98957.94;4943388;29;976;-76
2021/05/09 11:26:29;;;;;;;;;;;;;;;21.58;29.80;98956.38;4943567;29;789;-77
2021/05/09 11:29:07;;;;;;;;;;;;;;;21.59;29.80;98952.31;4943472;29;700;-77
2021/05/09 11:31:36;;;;;;;;;;;;;;;21.52;30.10;98946.72;4943450;29;624;-77
2021/05/09 11:34:01;;;;;;;;;;;;;;;21.68;29.73;98955.44;4943389;29;588;-77
2021/05/09 11:36:27;;;;;;;;;;;;;;;21.72;29.71;98955.41;4943385;29;1001;-77
2021/05/09 11:39:09;;;;;;;;;;;;;;;21.75;29.36;98954.56;4943005;29;844;-76
2021/05/09 11:42:14;;;;;;;;;;;;;;;21.59;29.68;98953.09;4926609;29;955;-76
2021/05/09 11:44:50;;;;;;;;;;;;;;;21.66;29.63;98952.25;4905195;29;1272;-76
2021/05/09 11:47:23;;;;;;;;;;;;;;;21.58;29.84;98953.53;4943618;29;818;-77
2021/05/09 11:49:49;;;;;;;;;;;;;;;21.57;29.92;98949.91;4943080;29;586;-76
2021/05/09 11:52:19;;;;;;;;;;;;;;;21.63;29.52;98953.06;4943092;29;715;-76
2021/05/09 11:54:49;;;;;;;;;;;;;;;21.66;29.40;98946.56;4942590;29;885;-76
2021/05/09 11:57:14;;;;;;;;;;;;;;;21.59;29.49;98940.97;4926853;29;1218;-76
2021/05/09 11:59:41;;;;;;;;;;;;;;;21.56;29.68;98950.34;4926417;29;1899;-75
2021/05/09 12:02:06;;;;;;;;;;;;;;;21.58;29.76;98948.69;4942951;29;779;-77
2021/05/09 12:04:32;;;;;;;;;;;;;;;21.64;29.79;98948.22;4942915;29;659;-77
2021/05/09 12:07:01;;;;;;;;;;;;;;;21.55;29.71;98934.53;4943232;29;769;-77
2021/05/09 12:09:27;;;;;;;;;;;;;;;21.59;29.84;98935.31;4942554;29;889;-76
2021/05/09 12:11:52;;;;;;;;;;;;;;;21.59;29.55;98932.47;4926128;29;878;-75
2021/05/09 12:14:18;;;;;;;;;;;;;;;21.56;29.80;98941.84;4926006;29;951;-75
2021/05/09 12:16:44;;;;;;;;;;;;;;;21.52;29.73;98935.41;4926249;29;857;-76
2021/05/09 12:19:09;;;;;;;;;;;;;;;21.44;29.87;98928.22;4942674;29;1906;-77
2021/05/09 12:21:35;;;;;;;;;;;;;;;21.47;29.87;98930.22;4926387;29;655;-77
2021/05/09 12:24:01;;;;;;;;;;;;;;;21.65;29.50;98933.63;4942266;29;938;-76
2021/05/09 12:26:26;;;;;;;;;;;;;;;21.55;29.80;98928.88;4942340;29;929;-76
2021/05/09 12:28:52;;;;;;;;;;;;;;;21.69;29.63;98934.38;4942806;29;884;-77
2021/05/09 12:31:19;;;;;;;;;;;;;;;21.62;29.57;98930.84;4942690;29;632;-77
2021/05/09 12:33:47;;;;;;;;;;;;;;;21.69;29.77;98927.91;4942533;29;675;-77
2021/05/09 12:36:13;;;;;;;;;;;;;;;21.68;29.55;98932.78;4942607;29;981;-77
2021/05/09 12:38:38;;;;;;;;;;;;;;;21.53;29.65;98923.66;4925943;29;910;-77
2021/05/09 12:41:05;;;;;;;;;;;;;;;21.66;29.59;98940.91;4942071;29;1919;-76
2021/05/09 12:43:40;;;;;;;;;;;;;;;21.54;29.97;98941.44;4942577;29;605;-77
2021/05/09 12:46:05;;;;;;;;;;;;;;;21.44;29.76;98933.88;4942402;29;631;-76
2021/05/09 12:48:31;;;;;;;;;;;;;;;21.51;29.73;98939.47;4942691;29;632;-77
2021/05/09 12:51:01;;;;;;;;;;;;;;;21.49;30.06;98941.91;4943096;29;656;-76
2021/05/09 12:53:39;;;;;;;;;;;;;;;21.64;29.61;98936.88;4942389;29;666;-77
2021/05/09 12:56:34;;;;;;;;;;;;;;;21.52;29.90;98935.41;4942059;29;801;-76
2021/05/09 12:59:00;;;;;;;;;;;;;;;21.59;29.62;98935.31;4925550;29;919;-76
2021/05/09 13:01:26;;;;;;;;;;;;;;;21.56;29.49;98930.50;4942406;29;1972;-76
2021/05/09 13:03:51;;;;;;;;;;;;;;;21.67;29.49;98936.84;4926198;29;1245;-77
2021/05/09 13:06:17;;;;;;;;;;;;;;;21.60;29.61;98936.91;4942439;29;650;-77
2021/05/09 13:08:43;;;;;;;;;;;;;;;21.61;29.42;98927.22;4946358;29;623;-77